Terminal Aerodrome Forecast
Issued by NWS

Home | Current Version | Previous Version | Text Only | Print | Product List | Glossary On
Versions: 1 2 3 4 5 6 7 8 9 10 11 12 13 14 15 16 17 18 19 20 21 22 23 24
001
FTUS43 KDLH 230108 AAA
TAFHYR
TAF AMD
KHYR 230108Z 2301/2324 VRB04KT P6SM BKN060
      TEMPO 2301/2302 4SM -TSRA BKN050CB
     FM230500 VRB04KT 5SM BR SCT050
     FM230700 33004KT 4SM BR SCT010
      TEMPO 2308/2312 1 1/2SM BR SCT005
     FM231200 VRB03KT P6SM SCT015 BKN040
     FM231600 01007KT P6SM SCT020 BKN040=

USA.gov is the U.S. government's official web portal to all federal, state and local government web resources and services.